<?xml version="1.0" encoding="UTF-8" standalone="yes"?>
<gpx
 xmlns="http://www.topografix.com/GPX/1/1"
 creator="OziExplorer Version 3956d - http://www.oziexplorer.com"
 version="1.1"
 xmlns:xsi="http://www.w3.org/2001/XMLSchema-instance"
 xsi:schemaLocation="http://www.topografix.com/GPX/1/1 http://www.topografix.com/GPX/1/1/gpx.xsd">
<metadata>
 <time>2015-07-29T12:56:03Z</time>
 <bounds minlat="31.807250" minlon="34.989920" maxlat="31.847080" maxlon="35.057170"/>
</metadata>
<wpt lat="31.8416170" lon="34.9934641">
 <time>2015-07-29T07:13:26.154Z</time>
 <name>1-Start</name>
 <sym>Bike Trail</sym>
</wpt>
<wpt lat="31.8418813" lon="34.9936143">
 <time>2015-07-29T07:13:33.369Z</time>
 <name>2-Finish</name>
 <sym>Pin, Red</sym>
</wpt>
<wpt lat="31.8424061" lon="35.0250447">
 <time>2015-07-29T12:51:46.848Z</time>
 <name>3-EinAyalon</name>
 <sym>Navaid, Red</sym>
</wpt>
<trk>
 <name>Canada- Neve Ilan, 24.5 km</name>
 <desc>Canada- Neve Ilan, 24.5 km</desc>
<trkseg>
<trkpt lat="31.8416180" lon="34.9934720">
<ele>248.000000</ele>
<time>2010-01-01T00:00:00.000Z</time>
</trkpt>
<trkpt lat="31.8414100" lon="34.9933900">
<ele>250.000000</ele>
<time>2010-01-01T00:00:08.000Z</time>
</trkpt>
<trkpt lat="31.8411600" lon="34.9931300">
<ele>250.999985</ele>
<time>2010-01-01T00:00:22.000Z</time>
</trkpt>
<trkpt lat="31.8408000" lon="34.9926700">
<ele>250.999985</ele>
<time>2010-01-01T00:00:43.000Z</time>
</trkpt>
<trkpt lat="31.8404400" lon="34.9925500">
<ele>250.000000</ele>
<time>2010-01-01T00:00:58.000Z</time>
</trkpt>
<trkpt lat="31.8401100" lon="34.9925400">
<ele>250.000000</ele>
<time>2010-01-01T00:01:11.000Z</time>
</trkpt>
<trkpt lat="31.8397100" lon="34.9927500">
<ele>255.000000</ele>
<time>2010-01-01T00:01:29.000Z</time>
</trkpt>
<trkpt lat="31.8391100" lon="34.9928000">
<ele>260.000000</ele>
<time>2010-01-01T00:01:53.000Z</time>
</trkpt>
<trkpt lat="31.8385600" lon="34.9925800">
<ele>258.000000</ele>
<time>2010-01-01T00:02:16.000Z</time>
</trkpt>
<trkpt lat="31.8367400" lon="34.9928200">
<ele>275.000000</ele>
<time>2010-01-01T00:03:29.000Z</time>
</trkpt>
<trkpt lat="31.8367300" lon="34.9928000">
<ele>275.000000</ele>
<time>2010-01-01T00:03:30.000Z</time>
</trkpt>
<trkpt lat="31.8367800" lon="34.9926000">
<ele>274.000000</ele>
<time>2010-01-01T00:03:37.000Z</time>
</trkpt>
<trkpt lat="31.8367800" lon="34.9926000">
<ele>274.000000</ele>
<time>2010-01-01T00:03:53.000Z</time>
</trkpt>
<trkpt lat="31.8369600" lon="34.9917600">
<ele>272.000000</ele>
<time>2010-01-01T00:04:23.000Z</time>
</trkpt>
<trkpt lat="31.8371900" lon="34.9911700">
<ele>272.000000</ele>
<time>2010-01-01T00:04:45.000Z</time>
</trkpt>
<trkpt lat="31.8371400" lon="34.9910900">
<ele>273.000000</ele>
<time>2010-01-01T00:04:48.000Z</time>
</trkpt>
<trkpt lat="31.8371400" lon="34.9910800">
<ele>273.000000</ele>
<time>2010-01-01T00:04:49.000Z</time>
</trkpt>
<trkpt lat="31.8366700" lon="34.9905400">
<ele>277.000000</ele>
<time>2010-01-01T00:05:15.000Z</time>
</trkpt>
<trkpt lat="31.8363000" lon="34.9899800">
<ele>276.000000</ele>
<time>2010-01-01T00:05:39.000Z</time>
</trkpt>
<trkpt lat="31.8359800" lon="34.9899200">
<ele>275.000000</ele>
<time>2010-01-01T00:05:52.000Z</time>
</trkpt>
<trkpt lat="31.8358400" lon="34.9899500">
<ele>275.000000</ele>
<time>2010-01-01T00:05:58.000Z</time>
</trkpt>
<trkpt lat="31.8356600" lon="34.9901200">
<ele>276.000000</ele>
<time>2010-01-01T00:06:07.000Z</time>
</trkpt>
<trkpt lat="31.8356600" lon="34.9901200">
<ele>276.000000</ele>
<time>2010-01-01T00:06:39.000Z</time>
</trkpt>
<trkpt lat="31.8355000" lon="34.9902600">
<ele>277.000000</ele>
<time>2010-01-01T00:06:47.000Z</time>
</trkpt>
<trkpt lat="31.8352500" lon="34.9911300">
<ele>283.000000</ele>
<time>2010-01-01T00:07:18.000Z</time>
</trkpt>
<trkpt lat="31.8353100" lon="34.9916500">
<ele>289.000000</ele>
<time>2010-01-01T00:07:36.000Z</time>
</trkpt>
<trkpt lat="31.8352700" lon="34.9918900">
<ele>291.000000</ele>
<time>2010-01-01T00:07:44.000Z</time>
</trkpt>
<trkpt lat="31.8353500" lon="34.9921700">
<ele>294.000000</ele>
<time>2010-01-01T00:07:54.000Z</time>
</trkpt>
<trkpt lat="31.8356500" lon="34.9923900">
<ele>293.000000</ele>
<time>2010-01-01T00:08:08.000Z</time>
</trkpt>
<trkpt lat="31.8356700" lon="34.9924700">
<ele>293.000000</ele>
<time>2010-01-01T00:08:11.000Z</time>
</trkpt>
<trkpt lat="31.8356600" lon="34.9925500">
<ele>293.000000</ele>
<time>2010-01-01T00:08:14.000Z</time>
</trkpt>
<trkpt lat="31.8355200" lon="34.9926800">
<ele>296.000000</ele>
<time>2010-01-01T00:08:21.000Z</time>
</trkpt>
<trkpt lat="31.8352400" lon="34.9933900">
<ele>306.000000</ele>
<time>2010-01-01T00:08:48.000Z</time>
</trkpt>
<trkpt lat="31.8351700" lon="34.9937800">
<ele>307.000000</ele>
<time>2010-01-01T00:09:01.000Z</time>
</trkpt>
<trkpt lat="31.8351300" lon="34.9939800">
<ele>307.000000</ele>
<time>2010-01-01T00:09:08.000Z</time>
</trkpt>
<trkpt lat="31.8350800" lon="34.9941700">
<ele>308.000000</ele>
<time>2010-01-01T00:09:15.000Z</time>
</trkpt>
<trkpt lat="31.8349900" lon="34.9943200">
<ele>309.000000</ele>
<time>2010-01-01T00:09:21.000Z</time>
</trkpt>
<trkpt lat="31.8349500" lon="34.9945000">
<ele>308.000000</ele>
<time>2010-01-01T00:09:28.000Z</time>
</trkpt>
<trkpt lat="31.8350800" lon="34.9951900">
<ele>306.000000</ele>
<time>2010-01-01T00:09:52.000Z</time>
</trkpt>
<trkpt lat="31.8352100" lon="34.9955400">
<ele>305.000000</ele>
<time>2010-01-01T00:10:05.000Z</time>
</trkpt>
<trkpt lat="31.8352100" lon="34.9960600">
<ele>303.000000</ele>
<time>2010-01-01T00:10:22.000Z</time>
</trkpt>
<trkpt lat="31.8352000" lon="34.9962100">
<ele>301.000000</ele>
<time>2010-01-01T00:10:27.000Z</time>
</trkpt>
<trkpt lat="31.8352400" lon="34.9963600">
<ele>301.000000</ele>
<time>2010-01-01T00:10:33.000Z</time>
</trkpt>
<trkpt lat="31.8353200" lon="34.9963800">
<ele>302.000000</ele>
<time>2010-01-01T00:10:36.000Z</time>
</trkpt>
<trkpt lat="31.8353100" lon="34.9963800">
<ele>301.000000</ele>
<time>2010-01-01T00:10:36.000Z</time>
</trkpt>
<trkpt lat="31.8355000" lon="34.9964500">
<ele>304.000000</ele>
<time>2010-01-01T00:10:44.000Z</time>
</trkpt>
<trkpt lat="31.8357400" lon="34.9967400">
<ele>305.000000</ele>
<time>2010-01-01T00:10:58.000Z</time>
</trkpt>
<trkpt lat="31.8358800" lon="34.9969500">
<ele>307.000000</ele>
<time>2010-01-01T00:11:07.000Z</time>
</trkpt>
<trkpt lat="31.8360900" lon="34.9973100">
<ele>308.000000</ele>
<time>2010-01-01T00:11:22.000Z</time>
</trkpt>
<trkpt lat="31.8360400" lon="34.9975400">
<ele>308.000000</ele>
<time>2010-01-01T00:11:30.000Z</time>
</trkpt>
<trkpt lat="31.8357400" lon="34.9982900">
<ele>309.000000</ele>
<time>2010-01-01T00:11:58.000Z</time>
</trkpt>
<trkpt lat="31.8354500" lon="34.9983500">
<ele>308.000000</ele>
<time>2010-01-01T00:12:10.000Z</time>
</trkpt>
<trkpt lat="31.8348800" lon="34.9977900">
<ele>299.000000</ele>
<time>2010-01-01T00:12:40.000Z</time>
</trkpt>
<trkpt lat="31.8346100" lon="34.9977300">
<ele>296.000000</ele>
<time>2010-01-01T00:12:51.000Z</time>
</trkpt>
<trkpt lat="31.8334300" lon="34.9977400">
<ele>293.000000</ele>
<time>2010-01-01T00:13:38.000Z</time>
</trkpt>
<trkpt lat="31.8328900" lon="34.9972500">
<ele>288.000000</ele>
<time>2010-01-01T00:14:05.000Z</time>
</trkpt>
<trkpt lat="31.8323800" lon="34.9969000">
<ele>283.000000</ele>
<time>2010-01-01T00:14:29.000Z</time>
</trkpt>
<trkpt lat="31.8307700" lon="34.9964300">
<ele>274.000000</ele>
<time>2010-01-01T00:15:35.000Z</time>
</trkpt>
<trkpt lat="31.8303100" lon="34.9964300">
<ele>273.000000</ele>
<time>2010-01-01T00:15:54.000Z</time>
</trkpt>
<trkpt lat="31.8298200" lon="34.9965500">
<ele>276.000000</ele>
<time>2010-01-01T00:16:14.000Z</time>
</trkpt>
<trkpt lat="31.8294100" lon="34.9968000">
<ele>282.000000</ele>
<time>2010-01-01T00:16:32.000Z</time>
</trkpt>
<trkpt lat="31.8288800" lon="34.9969100">
<ele>281.000000</ele>
<time>2010-01-01T00:16:54.000Z</time>
</trkpt>
<trkpt lat="31.8286000" lon="34.9972100">
<ele>283.000000</ele>
<time>2010-01-01T00:17:09.000Z</time>
</trkpt>
<trkpt lat="31.8282700" lon="34.9977400">
<ele>284.000000</ele>
<time>2010-01-01T00:17:31.000Z</time>
</trkpt>
<trkpt lat="31.8282600" lon="34.9983500">
<ele>289.000000</ele>
<time>2010-01-01T00:17:52.000Z</time>
</trkpt>
<trkpt lat="31.8285400" lon="34.9988500">
<ele>288.000000</ele>
<time>2010-01-01T00:18:13.000Z</time>
</trkpt>
<trkpt lat="31.8289800" lon="34.9991700">
<ele>293.000000</ele>
<time>2010-01-01T00:18:33.000Z</time>
</trkpt>
<trkpt lat="31.8302900" lon="35.0008000">
<ele>291.000000</ele>
<time>2010-01-01T00:19:50.000Z</time>
</trkpt>
<trkpt lat="31.8319500" lon="35.0019900">
<ele>295.000000</ele>
<time>2010-01-01T00:21:07.000Z</time>
</trkpt>
<trkpt lat="31.8321500" lon="35.0022800">
<ele>293.000000</ele>
<time>2010-01-01T00:21:20.000Z</time>
</trkpt>
<trkpt lat="31.8319000" lon="35.0024800">
<ele>286.000000</ele>
<time>2010-01-01T00:21:32.000Z</time>
</trkpt>
<trkpt lat="31.8319000" lon="35.0027000">
<ele>283.000000</ele>
<time>2010-01-01T00:21:40.000Z</time>
</trkpt>
<trkpt lat="31.8318800" lon="35.0029600">
<ele>280.000000</ele>
<time>2010-01-01T00:21:49.000Z</time>
</trkpt>
<trkpt lat="31.8322700" lon="35.0033300">
<ele>280.000000</ele>
<time>2010-01-01T00:22:09.000Z</time>
</trkpt>
<trkpt lat="31.8323300" lon="35.0035000">
<ele>281.000000</ele>
<time>2010-01-01T00:22:15.000Z</time>
</trkpt>
<trkpt lat="31.8323100" lon="35.0038600">
<ele>281.000000</ele>
<time>2010-01-01T00:22:27.000Z</time>
</trkpt>
<trkpt lat="31.8321500" lon="35.0041300">
<ele>278.000000</ele>
<time>2010-01-01T00:22:38.000Z</time>
</trkpt>
<trkpt lat="31.8320900" lon="35.0045400">
<ele>280.000000</ele>
<time>2010-01-01T00:22:52.000Z</time>
</trkpt>
<trkpt lat="31.8321300" lon="35.0047000">
<ele>281.000000</ele>
<time>2010-01-01T00:22:58.000Z</time>
</trkpt>
<trkpt lat="31.8319400" lon="35.0051100">
<ele>282.000000</ele>
<time>2010-01-01T00:23:14.000Z</time>
</trkpt>
<trkpt lat="31.8316900" lon="35.0045600">
<ele>274.000000</ele>
<time>2010-01-01T00:23:35.000Z</time>
</trkpt>
<trkpt lat="31.8313000" lon="35.0040400">
<ele>271.000000</ele>
<time>2010-01-01T00:23:59.000Z</time>
</trkpt>
<trkpt lat="31.8312500" lon="35.0041500">
<ele>272.000000</ele>
<time>2010-01-01T00:24:03.000Z</time>
</trkpt>
<trkpt lat="31.8314000" lon="35.0044700">
<ele>275.000000</ele>
<time>2010-01-01T00:24:16.000Z</time>
</trkpt>
<trkpt lat="31.8314900" lon="35.0048300">
<ele>278.000000</ele>
<time>2010-01-01T00:24:28.000Z</time>
</trkpt>
<trkpt lat="31.8315000" lon="35.0052100">
<ele>282.000000</ele>
<time>2010-01-01T00:24:41.000Z</time>
</trkpt>
<trkpt lat="31.8314000" lon="35.0054900">
<ele>287.000000</ele>
<time>2010-01-01T00:24:52.000Z</time>
</trkpt>
<trkpt lat="31.8308700" lon="35.0052100">
<ele>290.000000</ele>
<time>2010-01-01T00:25:15.000Z</time>
</trkpt>
<trkpt lat="31.8308400" lon="35.0052400">
<ele>291.000000</ele>
<time>2010-01-01T00:25:16.000Z</time>
</trkpt>
<trkpt lat="31.8308700" lon="35.0054000">
<ele>293.000000</ele>
<time>2010-01-01T00:25:22.000Z</time>
</trkpt>
<trkpt lat="31.8307600" lon="35.0056900">
<ele>297.000000</ele>
<time>2010-01-01T00:25:33.000Z</time>
</trkpt>
<trkpt lat="31.8303900" lon="35.0056500">
<ele>295.000000</ele>
<time>2010-01-01T00:25:48.000Z</time>
</trkpt>
<trkpt lat="31.8301000" lon="35.0059000">
<ele>298.000000</ele>
<time>2010-01-01T00:26:02.000Z</time>
</trkpt>
<trkpt lat="31.8297900" lon="35.0068600">
<ele>307.000000</ele>
<time>2010-01-01T00:26:37.000Z</time>
</trkpt>
<trkpt lat="31.8296100" lon="35.0071900">
<ele>308.000000</ele>
<time>2010-01-01T00:26:50.000Z</time>
</trkpt>
<trkpt lat="31.8292600" lon="35.0075100">
<ele>307.000000</ele>
<time>2010-01-01T00:27:08.000Z</time>
</trkpt>
<trkpt lat="31.8292800" lon="35.0076400">
<ele>309.000000</ele>
<time>2010-01-01T00:27:12.000Z</time>
</trkpt>
<trkpt lat="31.8292800" lon="35.0076300">
<ele>309.000000</ele>
<time>2010-01-01T00:27:13.000Z</time>
</trkpt>
<trkpt lat="31.8293800" lon="35.0083600">
<ele>319.000000</ele>
<time>2010-01-01T00:27:38.000Z</time>
</trkpt>
<trkpt lat="31.8292600" lon="35.0098100">
<ele>328.000000</ele>
<time>2010-01-01T00:28:28.000Z</time>
</trkpt>
<trkpt lat="31.8293400" lon="35.0104100">
<ele>330.000000</ele>
<time>2010-01-01T00:28:48.000Z</time>
</trkpt>
<trkpt lat="31.8294600" lon="35.0108800">
<ele>333.000000</ele>
<time>2010-01-01T00:29:05.000Z</time>
</trkpt>
<trkpt lat="31.8293300" lon="35.0114300">
<ele>330.000000</ele>
<time>2010-01-01T00:29:24.000Z</time>
</trkpt>
<trkpt lat="31.8289600" lon="35.0121100">
<ele>323.000000</ele>
<time>2010-01-01T00:29:52.000Z</time>
</trkpt>
<trkpt lat="31.8284200" lon="35.0129000">
<ele>310.000000</ele>
<time>2010-01-01T00:30:26.000Z</time>
</trkpt>
<trkpt lat="31.8282800" lon="35.0135800">
<ele>302.000000</ele>
<time>2010-01-01T00:30:50.000Z</time>
</trkpt>
<trkpt lat="31.8282800" lon="35.0135800">
<ele>302.000000</ele>
<time>2010-01-01T00:31:08.000Z</time>
</trkpt>
<trkpt lat="31.8285300" lon="35.0143500">
<ele>301.000000</ele>
<time>2010-01-01T00:31:36.000Z</time>
</trkpt>
<trkpt lat="31.8285100" lon="35.0145100">
<ele>301.000000</ele>
<time>2010-01-01T00:31:41.000Z</time>
</trkpt>
<trkpt lat="31.8283200" lon="35.0145800">
<ele>296.000000</ele>
<time>2010-01-01T00:31:49.000Z</time>
</trkpt>
<trkpt lat="31.8281700" lon="35.0147800">
<ele>294.000000</ele>
<time>2010-01-01T00:31:58.000Z</time>
</trkpt>
<trkpt lat="31.8278900" lon="35.0148400">
<ele>289.000000</ele>
<time>2010-01-01T00:32:10.000Z</time>
</trkpt>
<trkpt lat="31.8277700" lon="35.0151800">
<ele>287.000000</ele>
<time>2010-01-01T00:32:22.000Z</time>
</trkpt>
<trkpt lat="31.8275400" lon="35.0156800">
<ele>285.000000</ele>
<time>2010-01-01T00:32:42.000Z</time>
</trkpt>
<trkpt lat="31.8274000" lon="35.0158100">
<ele>285.000000</ele>
<time>2010-01-01T00:32:49.000Z</time>
</trkpt>
<trkpt lat="31.8272300" lon="35.0159200">
<ele>287.000000</ele>
<time>2010-01-01T00:32:57.000Z</time>
</trkpt>
<trkpt lat="31.8269700" lon="35.0157600">
<ele>285.000000</ele>
<time>2010-01-01T00:33:08.000Z</time>
</trkpt>
<trkpt lat="31.8267200" lon="35.0157600">
<ele>285.000000</ele>
<time>2010-01-01T00:33:18.000Z</time>
</trkpt>
<trkpt lat="31.8264600" lon="35.0159100">
<ele>286.000000</ele>
<time>2010-01-01T00:33:30.000Z</time>
</trkpt>
<trkpt lat="31.8259200" lon="35.0163800">
<ele>287.000000</ele>
<time>2010-01-01T00:33:57.000Z</time>
</trkpt>
<trkpt lat="31.8255300" lon="35.0167900">
<ele>286.000000</ele>
<time>2010-01-01T00:34:18.000Z</time>
</trkpt>
<trkpt lat="31.8252800" lon="35.0172000">
<ele>285.000000</ele>
<time>2010-01-01T00:34:35.000Z</time>
</trkpt>
<trkpt lat="31.8252100" lon="35.0176700">
<ele>286.000000</ele>
<time>2010-01-01T00:34:51.000Z</time>
</trkpt>
<trkpt lat="31.8249700" lon="35.0179500">
<ele>283.000000</ele>
<time>2010-01-01T00:35:05.000Z</time>
</trkpt>
<trkpt lat="31.8246400" lon="35.0183800">
<ele>282.000000</ele>
<time>2010-01-01T00:35:24.000Z</time>
</trkpt>
<trkpt lat="31.8244400" lon="35.0187700">
<ele>283.000000</ele>
<time>2010-01-01T00:35:40.000Z</time>
</trkpt>
<trkpt lat="31.8241500" lon="35.0191100">
<ele>281.000000</ele>
<time>2010-01-01T00:35:56.000Z</time>
</trkpt>
<trkpt lat="31.8240600" lon="35.0193900">
<ele>282.000000</ele>
<time>2010-01-01T00:36:06.000Z</time>
</trkpt>
<trkpt lat="31.8236900" lon="35.0198400">
<ele>282.000000</ele>
<time>2010-01-01T00:36:28.000Z</time>
</trkpt>
<trkpt lat="31.8232900" lon="35.0207800">
<ele>283.000000</ele>
<time>2010-01-01T00:37:03.000Z</time>
</trkpt>
<trkpt lat="31.8234800" lon="35.0218300">
<ele>290.000000</ele>
<time>2010-01-01T00:37:40.000Z</time>
</trkpt>
<trkpt lat="31.8233100" lon="35.0218000">
<ele>288.000000</ele>
<time>2010-01-01T00:37:47.000Z</time>
</trkpt>
<trkpt lat="31.8231600" lon="35.0216800">
<ele>287.000000</ele>
<time>2010-01-01T00:37:54.000Z</time>
</trkpt>
<trkpt lat="31.8231600" lon="35.0216800">
<ele>287.000000</ele>
<time>2010-01-01T00:38:05.000Z</time>
</trkpt>
<trkpt lat="31.8230200" lon="35.0214500">
<ele>284.000000</ele>
<time>2010-01-01T00:38:15.000Z</time>
</trkpt>
<trkpt lat="31.8228600" lon="35.0212600">
<ele>282.000000</ele>
<time>2010-01-01T00:38:24.000Z</time>
</trkpt>
<trkpt lat="31.8223200" lon="35.0208400">
<ele>276.000000</ele>
<time>2010-01-01T00:38:50.000Z</time>
</trkpt>
<trkpt lat="31.8221500" lon="35.0206200">
<ele>274.000000</ele>
<time>2010-01-01T00:39:00.000Z</time>
</trkpt>
<trkpt lat="31.8217800" lon="35.0207900">
<ele>273.000000</ele>
<time>2010-01-01T00:39:16.000Z</time>
</trkpt>
<trkpt lat="31.8213600" lon="35.0208400">
<ele>273.000000</ele>
<time>2010-01-01T00:39:33.000Z</time>
</trkpt>
<trkpt lat="31.8207900" lon="35.0210000">
<ele>276.000000</ele>
<time>2010-01-01T00:39:56.000Z</time>
</trkpt>
<trkpt lat="31.8202100" lon="35.0215800">
<ele>278.000000</ele>
<time>2010-01-01T00:40:27.000Z</time>
</trkpt>
<trkpt lat="31.8193100" lon="35.0225400">
<ele>282.000000</ele>
<time>2010-01-01T00:41:15.000Z</time>
</trkpt>
<trkpt lat="31.8191300" lon="35.0229600">
<ele>283.000000</ele>
<time>2010-01-01T00:41:31.000Z</time>
</trkpt>
<trkpt lat="31.8189900" lon="35.0233700">
<ele>285.000000</ele>
<time>2010-01-01T00:41:46.000Z</time>
</trkpt>
<trkpt lat="31.8190000" lon="35.0239900">
<ele>288.000000</ele>
<time>2010-01-01T00:42:07.000Z</time>
</trkpt>
<trkpt lat="31.8190500" lon="35.0244600">
<ele>292.000000</ele>
<time>2010-01-01T00:42:24.000Z</time>
</trkpt>
<trkpt lat="31.8188800" lon="35.0244500">
<ele>291.000000</ele>
<time>2010-01-01T00:42:30.000Z</time>
</trkpt>
<trkpt lat="31.8187400" lon="35.0245100">
<ele>290.000000</ele>
<time>2010-01-01T00:42:36.000Z</time>
</trkpt>
<trkpt lat="31.8186000" lon="35.0246600">
<ele>290.000000</ele>
<time>2010-01-01T00:42:44.000Z</time>
</trkpt>
<trkpt lat="31.8183000" lon="35.0250700">
<ele>290.000000</ele>
<time>2010-01-01T00:43:02.000Z</time>
</trkpt>
<trkpt lat="31.8180600" lon="35.0259500">
<ele>296.000000</ele>
<time>2010-01-01T00:43:34.000Z</time>
</trkpt>
<trkpt lat="31.8180800" lon="35.0262300">
<ele>297.000000</ele>
<time>2010-01-01T00:43:43.000Z</time>
</trkpt>
<trkpt lat="31.8181600" lon="35.0264800">
<ele>298.000000</ele>
<time>2010-01-01T00:43:52.000Z</time>
</trkpt>
<trkpt lat="31.8181400" lon="35.0269600">
<ele>301.000000</ele>
<time>2010-01-01T00:44:09.000Z</time>
</trkpt>
<trkpt lat="31.8180500" lon="35.0272100">
<ele>304.000000</ele>
<time>2010-01-01T00:44:18.000Z</time>
</trkpt>
<trkpt lat="31.8179800" lon="35.0274900">
<ele>306.000000</ele>
<time>2010-01-01T00:44:28.000Z</time>
</trkpt>
<trkpt lat="31.8175200" lon="35.0283900">
<ele>308.000000</ele>
<time>2010-01-01T00:45:04.000Z</time>
</trkpt>
<trkpt lat="31.8173000" lon="35.0293100">
<ele>312.999969</ele>
<time>2010-01-01T00:45:36.000Z</time>
</trkpt>
<trkpt lat="31.8172300" lon="35.0297600">
<ele>314.000000</ele>
<time>2010-01-01T00:45:52.000Z</time>
</trkpt>
<trkpt lat="31.8173700" lon="35.0303500">
<ele>315.000000</ele>
<time>2010-01-01T00:46:13.000Z</time>
</trkpt>
<trkpt lat="31.8175100" lon="35.0308200">
<ele>314.000000</ele>
<time>2010-01-01T00:46:30.000Z</time>
</trkpt>
<trkpt lat="31.8173400" lon="35.0307600">
<ele>316.000000</ele>
<time>2010-01-01T00:46:37.000Z</time>
</trkpt>
<trkpt lat="31.8172200" lon="35.0306400">
<ele>318.000000</ele>
<time>2010-01-01T00:46:43.000Z</time>
</trkpt>
<trkpt lat="31.8172200" lon="35.0306300">
<ele>317.000000</ele>
<time>2010-01-01T00:46:43.000Z</time>
</trkpt>
<trkpt lat="31.8169700" lon="35.0303800">
<ele>318.000000</ele>
<time>2010-01-01T00:46:56.000Z</time>
</trkpt>
<trkpt lat="31.8167500" lon="35.0303100">
<ele>320.000000</ele>
<time>2010-01-01T00:47:06.000Z</time>
</trkpt>
<trkpt lat="31.8159900" lon="35.0304100">
<ele>334.000000</ele>
<time>2010-01-01T00:47:36.000Z</time>
</trkpt>
<trkpt lat="31.8160200" lon="35.0300900">
<ele>333.000000</ele>
<time>2010-01-01T00:47:47.000Z</time>
</trkpt>
<trkpt lat="31.8162400" lon="35.0298000">
<ele>329.000000</ele>
<time>2010-01-01T00:48:00.000Z</time>
</trkpt>
<trkpt lat="31.8164600" lon="35.0291900">
<ele>328.000000</ele>
<time>2010-01-01T00:48:23.000Z</time>
</trkpt>
<trkpt lat="31.8167300" lon="35.0279300">
<ele>333.000000</ele>
<time>2010-01-01T00:49:07.000Z</time>
</trkpt>
<trkpt lat="31.8167100" lon="35.0276400">
<ele>334.000000</ele>
<time>2010-01-01T00:49:17.000Z</time>
</trkpt>
<trkpt lat="31.8162400" lon="35.0269100">
<ele>340.000000</ele>
<time>2010-01-01T00:49:48.000Z</time>
</trkpt>
<trkpt lat="31.8158300" lon="35.0266800">
<ele>346.000031</ele>
<time>2010-01-01T00:50:06.000Z</time>
</trkpt>
<trkpt lat="31.8155600" lon="35.0266400">
<ele>345.000000</ele>
<time>2010-01-01T00:50:17.000Z</time>
</trkpt>
<trkpt lat="31.8153100" lon="35.0267700">
<ele>347.000000</ele>
<time>2010-01-01T00:50:28.000Z</time>
</trkpt>
<trkpt lat="31.8148200" lon="35.0272300">
<ele>353.000000</ele>
<time>2010-01-01T00:50:53.000Z</time>
</trkpt>
<trkpt lat="31.8147200" lon="35.0273900">
<ele>355.000000</ele>
<time>2010-01-01T00:51:00.000Z</time>
</trkpt>
<trkpt lat="31.8145100" lon="35.0281500">
<ele>365.000000</ele>
<time>2010-01-01T00:51:27.000Z</time>
</trkpt>
<trkpt lat="31.8143000" lon="35.0285900">
<ele>368.000000</ele>
<time>2010-01-01T00:51:44.000Z</time>
</trkpt>
<trkpt lat="31.8139000" lon="35.0288900">
<ele>367.000000</ele>
<time>2010-01-01T00:52:03.000Z</time>
</trkpt>
<trkpt lat="31.8137800" lon="35.0290700">
<ele>368.000000</ele>
<time>2010-01-01T00:52:11.000Z</time>
</trkpt>
<trkpt lat="31.8135800" lon="35.0295700">
<ele>372.000000</ele>
<time>2010-01-01T00:52:30.000Z</time>
</trkpt>
<trkpt lat="31.8135400" lon="35.0298500">
<ele>375.000000</ele>
<time>2010-01-01T00:52:40.000Z</time>
</trkpt>
<trkpt lat="31.8135700" lon="35.0301400">
<ele>378.000000</ele>
<time>2010-01-01T00:52:49.000Z</time>
</trkpt>
<trkpt lat="31.8137500" lon="35.0306600">
<ele>384.000000</ele>
<time>2010-01-01T00:53:09.000Z</time>
</trkpt>
<trkpt lat="31.8137400" lon="35.0309600">
<ele>386.000000</ele>
<time>2010-01-01T00:53:19.000Z</time>
</trkpt>
<trkpt lat="31.8136500" lon="35.0312500">
<ele>387.999969</ele>
<time>2010-01-01T00:53:29.000Z</time>
</trkpt>
<trkpt lat="31.8134800" lon="35.0314200">
<ele>392.000000</ele>
<time>2010-01-01T00:53:38.000Z</time>
</trkpt>
<trkpt lat="31.8132500" lon="35.0315100">
<ele>395.000000</ele>
<time>2010-01-01T00:53:48.000Z</time>
</trkpt>
<trkpt lat="31.8130300" lon="35.0315300">
<ele>397.000000</ele>
<time>2010-01-01T00:53:57.000Z</time>
</trkpt>
<trkpt lat="31.8124500" lon="35.0314000">
<ele>397.000000</ele>
<time>2010-01-01T00:54:20.000Z</time>
</trkpt>
<trkpt lat="31.8122500" lon="35.0314100">
<ele>394.000000</ele>
<time>2010-01-01T00:54:28.000Z</time>
</trkpt>
<trkpt lat="31.8120700" lon="35.0315800">
<ele>396.000000</ele>
<time>2010-01-01T00:54:38.000Z</time>
</trkpt>
<trkpt lat="31.8119700" lon="35.0324500">
<ele>408.000000</ele>
<time>2010-01-01T00:55:07.000Z</time>
</trkpt>
<trkpt lat="31.8118800" lon="35.0327500">
<ele>410.000031</ele>
<time>2010-01-01T00:55:18.000Z</time>
</trkpt>
<trkpt lat="31.8114700" lon="35.0337400">
<ele>417.000000</ele>
<time>2010-01-01T00:55:56.000Z</time>
</trkpt>
<trkpt lat="31.8113200" lon="35.0339600">
<ele>420.000000</ele>
<time>2010-01-01T00:56:05.000Z</time>
</trkpt>
<trkpt lat="31.8111400" lon="35.0341400">
<ele>424.000031</ele>
<time>2010-01-01T00:56:15.000Z</time>
</trkpt>
<trkpt lat="31.8109300" lon="35.0342600">
<ele>428.000000</ele>
<time>2010-01-01T00:56:24.000Z</time>
</trkpt>
<trkpt lat="31.8097800" lon="35.0342500">
<ele>430.000000</ele>
<time>2010-01-01T00:57:10.000Z</time>
</trkpt>
<trkpt lat="31.8094000" lon="35.0345200">
<ele>432.000000</ele>
<time>2010-01-01T00:57:28.000Z</time>
</trkpt>
<trkpt lat="31.8091900" lon="35.0347600">
<ele>437.000000</ele>
<time>2010-01-01T00:57:40.000Z</time>
</trkpt>
<trkpt lat="31.8090600" lon="35.0349900">
<ele>439.000000</ele>
<time>2010-01-01T00:57:49.000Z</time>
</trkpt>
<trkpt lat="31.8087000" lon="35.0360400">
<ele>451.000000</ele>
<time>2010-01-01T00:58:28.000Z</time>
</trkpt>
<trkpt lat="31.8085000" lon="35.0364400">
<ele>454.000000</ele>
<time>2010-01-01T00:58:43.000Z</time>
</trkpt>
<trkpt lat="31.8083400" lon="35.0366200">
<ele>453.000000</ele>
<time>2010-01-01T00:58:52.000Z</time>
</trkpt>
<trkpt lat="31.8082500" lon="35.0369100">
<ele>454.000000</ele>
<time>2010-01-01T00:59:03.000Z</time>
</trkpt>
<trkpt lat="31.8081400" lon="35.0376900">
<ele>460.000000</ele>
<time>2010-01-01T00:59:30.000Z</time>
</trkpt>
<trkpt lat="31.8082200" lon="35.0381400">
<ele>465.999969</ele>
<time>2010-01-01T00:59:45.000Z</time>
</trkpt>
<trkpt lat="31.8082100" lon="35.0381400">
<ele>465.999969</ele>
<time>2010-01-01T00:59:46.000Z</time>
</trkpt>
<trkpt lat="31.8083300" lon="35.0385500">
<ele>471.000000</ele>
<time>2010-01-01T01:00:00.000Z</time>
</trkpt>
<trkpt lat="31.8092400" lon="35.0403300">
<ele>484.000000</ele>
<time>2010-01-01T01:01:11.000Z</time>
</trkpt>
<trkpt lat="31.8092700" lon="35.0405500">
<ele>484.000000</ele>
<time>2010-01-01T01:01:19.000Z</time>
</trkpt>
<trkpt lat="31.8092200" lon="35.0407600">
<ele>485.000000</ele>
<time>2010-01-01T01:01:26.000Z</time>
</trkpt>
<trkpt lat="31.8088400" lon="35.0412200">
<ele>489.000000</ele>
<time>2010-01-01T01:01:48.000Z</time>
</trkpt>
<trkpt lat="31.8086600" lon="35.0415400">
<ele>492.000000</ele>
<time>2010-01-01T01:02:01.000Z</time>
</trkpt>
<trkpt lat="31.8082400" lon="35.0417500">
<ele>490.000000</ele>
<time>2010-01-01T01:02:19.000Z</time>
</trkpt>
<trkpt lat="31.8081000" lon="35.0419900">
<ele>488.000031</ele>
<time>2010-01-01T01:02:29.000Z</time>
</trkpt>
<trkpt lat="31.8080300" lon="35.0449300">
<ele>520.000000</ele>
<time>2010-01-01T01:04:09.000Z</time>
</trkpt>
<trkpt lat="31.8080100" lon="35.0452600">
<ele>524.000000</ele>
<time>2010-01-01T01:04:20.000Z</time>
</trkpt>
<trkpt lat="31.8079800" lon="35.0456800">
<ele>528.000000</ele>
<time>2010-01-01T01:04:35.000Z</time>
</trkpt>
<trkpt lat="31.8077900" lon="35.0471400">
<ele>538.000000</ele>
<time>2010-01-01T01:05:25.000Z</time>
</trkpt>
<trkpt lat="31.8078000" lon="35.0475500">
<ele>541.000000</ele>
<time>2010-01-01T01:05:39.000Z</time>
</trkpt>
<trkpt lat="31.8082000" lon="35.0490300">
<ele>558.000000</ele>
<time>2010-01-01T01:06:32.000Z</time>
</trkpt>
<trkpt lat="31.8083900" lon="35.0494400">
<ele>563.000000</ele>
<time>2010-01-01T01:06:48.000Z</time>
</trkpt>
<trkpt lat="31.8085200" lon="35.0496100">
<ele>563.000000</ele>
<time>2010-01-01T01:06:56.000Z</time>
</trkpt>
<trkpt lat="31.8085900" lon="35.0499100">
<ele>563.000000</ele>
<time>2010-01-01T01:07:06.000Z</time>
</trkpt>
<trkpt lat="31.8085700" lon="35.0499200">
<ele>564.000000</ele>
<time>2010-01-01T01:07:07.000Z</time>
</trkpt>
<trkpt lat="31.8083600" lon="35.0500600">
<ele>565.000000</ele>
<time>2010-01-01T01:07:17.000Z</time>
</trkpt>
<trkpt lat="31.8075300" lon="35.0504300">
<ele>562.000000</ele>
<time>2010-01-01T01:07:52.000Z</time>
</trkpt>
<trkpt lat="31.8073400" lon="35.0505900">
<ele>559.000000</ele>
<time>2010-01-01T01:08:02.000Z</time>
</trkpt>
<trkpt lat="31.8072500" lon="35.0509500">
<ele>559.000000</ele>
<time>2010-01-01T01:08:14.000Z</time>
</trkpt>
<trkpt lat="31.8072700" lon="35.0513400">
<ele>558.000000</ele>
<time>2010-01-01T01:08:28.000Z</time>
</trkpt>
<trkpt lat="31.8073300" lon="35.0516400">
<ele>558.000000</ele>
<time>2010-01-01T01:08:38.000Z</time>
</trkpt>
<trkpt lat="31.8075400" lon="35.0520900">
<ele>558.000000</ele>
<time>2010-01-01T01:08:56.000Z</time>
</trkpt>
<trkpt lat="31.8079700" lon="35.0527100">
<ele>558.000000</ele>
<time>2010-01-01T01:09:23.000Z</time>
</trkpt>
<trkpt lat="31.8082600" lon="35.0533200">
<ele>554.000000</ele>
<time>2010-01-01T01:09:47.000Z</time>
</trkpt>
<trkpt lat="31.8084900" lon="35.0539300">
<ele>552.000000</ele>
<time>2010-01-01T01:10:09.000Z</time>
</trkpt>
<trkpt lat="31.8084200" lon="35.0549400">
<ele>550.000000</ele>
<time>2010-01-01T01:10:44.000Z</time>
</trkpt>
<trkpt lat="31.8084400" lon="35.0556500">
<ele>551.000000</ele>
<time>2010-01-01T01:11:08.000Z</time>
</trkpt>
<trkpt lat="31.8085800" lon="35.0566100">
<ele>548.000000</ele>
<time>2010-01-01T01:11:41.000Z</time>
</trkpt>
<trkpt lat="31.8087000" lon="35.0571700">
<ele>546.000000</ele>
<time>2010-01-01T01:12:01.000Z</time>
</trkpt>
<trkpt lat="31.8088400" lon="35.0570900">
<ele>549.000000</ele>
<time>2010-01-01T01:12:07.000Z</time>
</trkpt>
<trkpt lat="31.8089700" lon="35.0570000">
<ele>551.000000</ele>
<time>2010-01-01T01:12:13.000Z</time>
</trkpt>
<trkpt lat="31.8092400" lon="35.0568900">
<ele>552.000000</ele>
<time>2010-01-01T01:12:24.000Z</time>
</trkpt>
<trkpt lat="31.8097800" lon="35.0569300">
<ele>543.000000</ele>
<time>2010-01-01T01:12:46.000Z</time>
</trkpt>
<trkpt lat="31.8100300" lon="35.0569100">
<ele>538.000000</ele>
<time>2010-01-01T01:12:56.000Z</time>
</trkpt>
<trkpt lat="31.8101300" lon="35.0568400">
<ele>535.000000</ele>
<time>2010-01-01T01:13:01.000Z</time>
</trkpt>
<trkpt lat="31.8102300" lon="35.0566200">
<ele>531.000000</ele>
<time>2010-01-01T01:13:09.000Z</time>
</trkpt>
<trkpt lat="31.8104000" lon="35.0560200">
<ele>523.000000</ele>
<time>2010-01-01T01:13:31.000Z</time>
</trkpt>
<trkpt lat="31.8104200" lon="35.0559500">
<ele>522.000000</ele>
<time>2010-01-01T01:13:33.000Z</time>
</trkpt>
<trkpt lat="31.8096900" lon="35.0543200">
<ele>532.000000</ele>
<time>2010-01-01T01:14:36.000Z</time>
</trkpt>
<trkpt lat="31.8097200" lon="35.0541300">
<ele>530.000000</ele>
<time>2010-01-01T01:14:42.000Z</time>
</trkpt>
<trkpt lat="31.8099600" lon="35.0537600">
<ele>527.000000</ele>
<time>2010-01-01T01:14:58.000Z</time>
</trkpt>
<trkpt lat="31.8103900" lon="35.0533700">
<ele>512.000000</ele>
<time>2010-01-01T01:15:20.000Z</time>
</trkpt>
<trkpt lat="31.8104500" lon="35.0531700">
<ele>510.000000</ele>
<time>2010-01-01T01:15:27.000Z</time>
</trkpt>
<trkpt lat="31.8104700" lon="35.0524500">
<ele>511.000000</ele>
<time>2010-01-01T01:15:52.000Z</time>
</trkpt>
<trkpt lat="31.8103100" lon="35.0513700">
<ele>514.000000</ele>
<time>2010-01-01T01:16:29.000Z</time>
</trkpt>
<trkpt lat="31.8103000" lon="35.0507500">
<ele>513.000000</ele>
<time>2010-01-01T01:16:50.000Z</time>
</trkpt>
<trkpt lat="31.8104100" lon="35.0500100">
<ele>511.000000</ele>
<time>2010-01-01T01:17:16.000Z</time>
</trkpt>
<trkpt lat="31.8108400" lon="35.0490000">
<ele>500.000000</ele>
<time>2010-01-01T01:17:54.000Z</time>
</trkpt>
<trkpt lat="31.8114500" lon="35.0483000">
<ele>489.000000</ele>
<time>2010-01-01T01:18:28.000Z</time>
</trkpt>
<trkpt lat="31.8121600" lon="35.0475600">
<ele>482.000000</ele>
<time>2010-01-01T01:19:06.000Z</time>
</trkpt>
<trkpt lat="31.8128300" lon="35.0469200">
<ele>467.000000</ele>
<time>2010-01-01T01:19:41.000Z</time>
</trkpt>
<trkpt lat="31.8133400" lon="35.0463300">
<ele>455.000000</ele>
<time>2010-01-01T01:20:09.000Z</time>
</trkpt>
<trkpt lat="31.8138900" lon="35.0458300">
<ele>447.000000</ele>
<time>2010-01-01T01:20:37.000Z</time>
</trkpt>
<trkpt lat="31.8142900" lon="35.0444800">
<ele>434.000000</ele>
<time>2010-01-01T01:21:26.000Z</time>
</trkpt>
<trkpt lat="31.8146200" lon="35.0441600">
<ele>420.000000</ele>
<time>2010-01-01T01:21:43.000Z</time>
</trkpt>
<trkpt lat="31.8154500" lon="35.0423700">
<ele>391.000000</ele>
<time>2010-01-01T01:22:52.000Z</time>
</trkpt>
<trkpt lat="31.8156600" lon="35.0424700">
<ele>385.000031</ele>
<time>2010-01-01T01:23:01.000Z</time>
</trkpt>
<trkpt lat="31.8156900" lon="35.0426600">
<ele>385.000031</ele>
<time>2010-01-01T01:23:08.000Z</time>
</trkpt>
<trkpt lat="31.8156700" lon="35.0430800">
<ele>387.999969</ele>
<time>2010-01-01T01:23:22.000Z</time>
</trkpt>
<trkpt lat="31.8159400" lon="35.0426400">
<ele>385.000031</ele>
<time>2010-01-01T01:23:41.000Z</time>
</trkpt>
<trkpt lat="31.8160000" lon="35.0424900">
<ele>385.000031</ele>
<time>2010-01-01T01:23:46.000Z</time>
</trkpt>
<trkpt lat="31.8161600" lon="35.0419000">
<ele>383.000000</ele>
<time>2010-01-01T01:24:07.000Z</time>
</trkpt>
<trkpt lat="31.8161600" lon="35.0415800">
<ele>380.000000</ele>
<time>2010-01-01T01:24:18.000Z</time>
</trkpt>
<trkpt lat="31.8162900" lon="35.0411400">
<ele>376.999969</ele>
<time>2010-01-01T01:24:34.000Z</time>
</trkpt>
<trkpt lat="31.8168800" lon="35.0392300">
<ele>362.999969</ele>
<time>2010-01-01T01:25:43.000Z</time>
</trkpt>
<trkpt lat="31.8169800" lon="35.0389600">
<ele>362.999969</ele>
<time>2010-01-01T01:25:53.000Z</time>
</trkpt>
<trkpt lat="31.8173300" lon="35.0382800">
<ele>356.000000</ele>
<time>2010-01-01T01:26:20.000Z</time>
</trkpt>
<trkpt lat="31.8175000" lon="35.0380700">
<ele>354.000000</ele>
<time>2010-01-01T01:26:30.000Z</time>
</trkpt>
<trkpt lat="31.8179100" lon="35.0377200">
<ele>355.000000</ele>
<time>2010-01-01T01:26:50.000Z</time>
</trkpt>
<trkpt lat="31.8180500" lon="35.0375600">
<ele>353.000000</ele>
<time>2010-01-01T01:26:58.000Z</time>
</trkpt>
<trkpt lat="31.8180500" lon="35.0373400">
<ele>351.000000</ele>
<time>2010-01-01T01:27:06.000Z</time>
</trkpt>
<trkpt lat="31.8181000" lon="35.0371700">
<ele>350.000000</ele>
<time>2010-01-01T01:27:12.000Z</time>
</trkpt>
<trkpt lat="31.8182100" lon="35.0369500">
<ele>346.000031</ele>
<time>2010-01-01T01:27:21.000Z</time>
</trkpt>
<trkpt lat="31.8184400" lon="35.0361800">
<ele>341.000000</ele>
<time>2010-01-01T01:27:48.000Z</time>
</trkpt>
<trkpt lat="31.8184400" lon="35.0357000">
<ele>341.000000</ele>
<time>2010-01-01T01:28:05.000Z</time>
</trkpt>
<trkpt lat="31.8184500" lon="35.0355700">
<ele>341.000000</ele>
<time>2010-01-01T01:28:09.000Z</time>
</trkpt>
<trkpt lat="31.8185100" lon="35.0353500">
<ele>341.000000</ele>
<time>2010-01-01T01:28:17.000Z</time>
</trkpt>
<trkpt lat="31.8186300" lon="35.0350600">
<ele>342.000000</ele>
<time>2010-01-01T01:28:28.000Z</time>
</trkpt>
<trkpt lat="31.8188200" lon="35.0346800">
<ele>342.000000</ele>
<time>2010-01-01T01:28:43.000Z</time>
</trkpt>
<trkpt lat="31.8186900" lon="35.0355900">
<ele>343.000000</ele>
<time>2010-01-01T01:29:14.000Z</time>
</trkpt>
<trkpt lat="31.8188000" lon="35.0364600">
<ele>348.000000</ele>
<time>2010-01-01T01:29:44.000Z</time>
</trkpt>
<trkpt lat="31.8188700" lon="35.0364900">
<ele>349.000031</ele>
<time>2010-01-01T01:29:47.000Z</time>
</trkpt>
<trkpt lat="31.8192200" lon="35.0354300">
<ele>348.000000</ele>
<time>2010-01-01T01:30:26.000Z</time>
</trkpt>
<trkpt lat="31.8193800" lon="35.0353900">
<ele>351.000000</ele>
<time>2010-01-01T01:30:32.000Z</time>
</trkpt>
<trkpt lat="31.8194000" lon="35.0356000">
<ele>353.000000</ele>
<time>2010-01-01T01:30:40.000Z</time>
</trkpt>
<trkpt lat="31.8195400" lon="35.0358800">
<ele>358.000000</ele>
<time>2010-01-01T01:30:51.000Z</time>
</trkpt>
<trkpt lat="31.8195600" lon="35.0364400">
<ele>362.000000</ele>
<time>2010-01-01T01:31:10.000Z</time>
</trkpt>
<trkpt lat="31.8196300" lon="35.0366600">
<ele>365.000000</ele>
<time>2010-01-01T01:31:18.000Z</time>
</trkpt>
<trkpt lat="31.8197200" lon="35.0367900">
<ele>369.000000</ele>
<time>2010-01-01T01:31:23.000Z</time>
</trkpt>
<trkpt lat="31.8202500" lon="35.0369000">
<ele>378.000000</ele>
<time>2010-01-01T01:31:45.000Z</time>
</trkpt>
<trkpt lat="31.8202600" lon="35.0368100">
<ele>376.999969</ele>
<time>2010-01-01T01:31:48.000Z</time>
</trkpt>
<trkpt lat="31.8202700" lon="35.0367100">
<ele>376.000000</ele>
<time>2010-01-01T01:31:51.000Z</time>
</trkpt>
<trkpt lat="31.8205600" lon="35.0366300">
<ele>376.999969</ele>
<time>2010-01-01T01:32:03.000Z</time>
</trkpt>
<trkpt lat="31.8208100" lon="35.0361900">
<ele>375.000000</ele>
<time>2010-01-01T01:32:21.000Z</time>
</trkpt>
<trkpt lat="31.8206700" lon="35.0358900">
<ele>371.000000</ele>
<time>2010-01-01T01:32:33.000Z</time>
</trkpt>
<trkpt lat="31.8207900" lon="35.0357300">
<ele>370.000000</ele>
<time>2010-01-01T01:32:40.000Z</time>
</trkpt>
<trkpt lat="31.8205900" lon="35.0350800">
<ele>368.000000</ele>
<time>2010-01-01T01:33:04.000Z</time>
</trkpt>
<trkpt lat="31.8205000" lon="35.0344800">
<ele>369.000000</ele>
<time>2010-01-01T01:33:25.000Z</time>
</trkpt>
<trkpt lat="31.8203600" lon="35.0341800">
<ele>370.000000</ele>
<time>2010-01-01T01:33:36.000Z</time>
</trkpt>
<trkpt lat="31.8202300" lon="35.0339500">
<ele>372.000000</ele>
<time>2010-01-01T01:33:46.000Z</time>
</trkpt>
<trkpt lat="31.8201600" lon="35.0337000">
<ele>374.000031</ele>
<time>2010-01-01T01:33:55.000Z</time>
</trkpt>
<trkpt lat="31.8197900" lon="35.0333000">
<ele>370.000000</ele>
<time>2010-01-01T01:34:15.000Z</time>
</trkpt>
<trkpt lat="31.8196700" lon="35.0331000">
<ele>368.000000</ele>
<time>2010-01-01T01:34:23.000Z</time>
</trkpt>
<trkpt lat="31.8195900" lon="35.0323200">
<ele>372.000000</ele>
<time>2010-01-01T01:34:50.000Z</time>
</trkpt>
<trkpt lat="31.8192500" lon="35.0310500">
<ele>370.000000</ele>
<time>2010-01-01T01:35:35.000Z</time>
</trkpt>
<trkpt lat="31.8191300" lon="35.0304000">
<ele>366.000000</ele>
<time>2010-01-01T01:35:58.000Z</time>
</trkpt>
<trkpt lat="31.8192300" lon="35.0299500">
<ele>365.000000</ele>
<time>2010-01-01T01:36:13.000Z</time>
</trkpt>
<trkpt lat="31.8195500" lon="35.0296300">
<ele>362.000000</ele>
<time>2010-01-01T01:36:30.000Z</time>
</trkpt>
<trkpt lat="31.8196200" lon="35.0296100">
<ele>362.000000</ele>
<time>2010-01-01T01:36:33.000Z</time>
</trkpt>
<trkpt lat="31.8200000" lon="35.0295100">
<ele>362.999969</ele>
<time>2010-01-01T01:36:49.000Z</time>
</trkpt>
<trkpt lat="31.8204600" lon="35.0296400">
<ele>362.999969</ele>
<time>2010-01-01T01:37:08.000Z</time>
</trkpt>
<trkpt lat="31.8208300" lon="35.0299000">
<ele>365.000000</ele>
<time>2010-01-01T01:37:25.000Z</time>
</trkpt>
<trkpt lat="31.8216400" lon="35.0305100">
<ele>361.000000</ele>
<time>2010-01-01T01:38:03.000Z</time>
</trkpt>
<trkpt lat="31.8217400" lon="35.0306100">
<ele>361.000000</ele>
<time>2010-01-01T01:38:09.000Z</time>
</trkpt>
<trkpt lat="31.8220200" lon="35.0309900">
<ele>360.000031</ele>
<time>2010-01-01T01:38:26.000Z</time>
</trkpt>
<trkpt lat="31.8221900" lon="35.0311000">
<ele>358.000000</ele>
<time>2010-01-01T01:38:34.000Z</time>
</trkpt>
<trkpt lat="31.8225800" lon="35.0312000">
<ele>351.000000</ele>
<time>2010-01-01T01:38:50.000Z</time>
</trkpt>
<trkpt lat="31.8229600" lon="35.0315000">
<ele>351.000000</ele>
<time>2010-01-01T01:39:08.000Z</time>
</trkpt>
<trkpt lat="31.8231400" lon="35.0318900">
<ele>353.000000</ele>
<time>2010-01-01T01:39:23.000Z</time>
</trkpt>
<trkpt lat="31.8233500" lon="35.0313300">
<ele>342.000000</ele>
<time>2010-01-01T01:39:44.000Z</time>
</trkpt>
<trkpt lat="31.8235500" lon="35.0309100">
<ele>333.000000</ele>
<time>2010-01-01T01:40:00.000Z</time>
</trkpt>
<trkpt lat="31.8236300" lon="35.0307000">
<ele>329.000000</ele>
<time>2010-01-01T01:40:08.000Z</time>
</trkpt>
<trkpt lat="31.8236300" lon="35.0304500">
<ele>325.000000</ele>
<time>2010-01-01T01:40:16.000Z</time>
</trkpt>
<trkpt lat="31.8236100" lon="35.0302900">
<ele>323.000000</ele>
<time>2010-01-01T01:40:22.000Z</time>
</trkpt>
<trkpt lat="31.8237000" lon="35.0301800">
<ele>320.000000</ele>
<time>2010-01-01T01:40:27.000Z</time>
</trkpt>
<trkpt lat="31.8239900" lon="35.0301000">
<ele>316.000000</ele>
<time>2010-01-01T01:40:39.000Z</time>
</trkpt>
<trkpt lat="31.8241200" lon="35.0302200">
<ele>316.000000</ele>
<time>2010-01-01T01:40:46.000Z</time>
</trkpt>
<trkpt lat="31.8242600" lon="35.0305000">
<ele>319.000000</ele>
<time>2010-01-01T01:40:57.000Z</time>
</trkpt>
<trkpt lat="31.8243500" lon="35.0305400">
<ele>318.000000</ele>
<time>2010-01-01T01:41:01.000Z</time>
</trkpt>
<trkpt lat="31.8245300" lon="35.0304400">
<ele>316.000000</ele>
<time>2010-01-01T01:41:09.000Z</time>
</trkpt>
<trkpt lat="31.8249300" lon="35.0301700">
<ele>309.000000</ele>
<time>2010-01-01T01:41:27.000Z</time>
</trkpt>
<trkpt lat="31.8251200" lon="35.0299300">
<ele>305.000000</ele>
<time>2010-01-01T01:41:38.000Z</time>
</trkpt>
<trkpt lat="31.8253500" lon="35.0296600">
<ele>301.000000</ele>
<time>2010-01-01T01:41:51.000Z</time>
</trkpt>
<trkpt lat="31.8261200" lon="35.0305900">
<ele>305.000000</ele>
<time>2010-01-01T01:42:35.000Z</time>
</trkpt>
<trkpt lat="31.8263500" lon="35.0308200">
<ele>304.000000</ele>
<time>2010-01-01T01:42:47.000Z</time>
</trkpt>
<trkpt lat="31.8265000" lon="35.0309100">
<ele>303.000000</ele>
<time>2010-01-01T01:42:54.000Z</time>
</trkpt>
<trkpt lat="31.8266200" lon="35.0309600">
<ele>303.000000</ele>
<time>2010-01-01T01:42:59.000Z</time>
</trkpt>
<trkpt lat="31.8267600" lon="35.0309900">
<ele>303.000000</ele>
<time>2010-01-01T01:43:05.000Z</time>
</trkpt>
<trkpt lat="31.8271800" lon="35.0310100">
<ele>304.000000</ele>
<time>2010-01-01T01:43:22.000Z</time>
</trkpt>
<trkpt lat="31.8290400" lon="35.0308900">
<ele>314.000000</ele>
<time>2010-01-01T01:44:36.000Z</time>
</trkpt>
<trkpt lat="31.8292800" lon="35.0309300">
<ele>316.000000</ele>
<time>2010-01-01T01:44:46.000Z</time>
</trkpt>
<trkpt lat="31.8295000" lon="35.0310200">
<ele>317.000000</ele>
<time>2010-01-01T01:44:55.000Z</time>
</trkpt>
<trkpt lat="31.8300000" lon="35.0314200">
<ele>321.000031</ele>
<time>2010-01-01T01:45:20.000Z</time>
</trkpt>
<trkpt lat="31.8309200" lon="35.0321100">
<ele>331.000000</ele>
<time>2010-01-01T01:46:03.000Z</time>
</trkpt>
<trkpt lat="31.8316700" lon="35.0325500">
<ele>337.000000</ele>
<time>2010-01-01T01:46:37.000Z</time>
</trkpt>
<trkpt lat="31.8317800" lon="35.0326500">
<ele>339.000000</ele>
<time>2010-01-01T01:46:42.000Z</time>
</trkpt>
<trkpt lat="31.8318800" lon="35.0327800">
<ele>342.000000</ele>
<time>2010-01-01T01:46:48.000Z</time>
</trkpt>
<trkpt lat="31.8319500" lon="35.0329200">
<ele>344.000000</ele>
<time>2010-01-01T01:46:54.000Z</time>
</trkpt>
<trkpt lat="31.8325200" lon="35.0342400">
<ele>351.999969</ele>
<time>2010-01-01T01:47:44.000Z</time>
</trkpt>
<trkpt lat="31.8326700" lon="35.0345500">
<ele>349.000031</ele>
<time>2010-01-01T01:47:56.000Z</time>
</trkpt>
<trkpt lat="31.8327500" lon="35.0346300">
<ele>348.000000</ele>
<time>2010-01-01T01:48:01.000Z</time>
</trkpt>
<trkpt lat="31.8328200" lon="35.0346700">
<ele>347.000000</ele>
<time>2010-01-01T01:48:04.000Z</time>
</trkpt>
<trkpt lat="31.8329300" lon="35.0346900">
<ele>345.000000</ele>
<time>2010-01-01T01:48:08.000Z</time>
</trkpt>
<trkpt lat="31.8330700" lon="35.0346400">
<ele>344.000000</ele>
<time>2010-01-01T01:48:14.000Z</time>
</trkpt>
<trkpt lat="31.8334700" lon="35.0344500">
<ele>342.000000</ele>
<time>2010-01-01T01:48:31.000Z</time>
</trkpt>
<trkpt lat="31.8336300" lon="35.0344300">
<ele>341.000000</ele>
<time>2010-01-01T01:48:38.000Z</time>
</trkpt>
<trkpt lat="31.8338200" lon="35.0344800">
<ele>339.000000</ele>
<time>2010-01-01T01:48:45.000Z</time>
</trkpt>
<trkpt lat="31.8342600" lon="35.0346600">
<ele>332.000000</ele>
<time>2010-01-01T01:49:04.000Z</time>
</trkpt>
<trkpt lat="31.8346100" lon="35.0347700">
<ele>329.000000</ele>
<time>2010-01-01T01:49:19.000Z</time>
</trkpt>
<trkpt lat="31.8361000" lon="35.0352100">
<ele>317.000000</ele>
<time>2010-01-01T01:50:20.000Z</time>
</trkpt>
<trkpt lat="31.8363300" lon="35.0352700">
<ele>315.000000</ele>
<time>2010-01-01T01:50:30.000Z</time>
</trkpt>
<trkpt lat="31.8368600" lon="35.0352900">
<ele>310.000000</ele>
<time>2010-01-01T01:50:51.000Z</time>
</trkpt>
<trkpt lat="31.8371100" lon="35.0352700">
<ele>307.000000</ele>
<time>2010-01-01T01:51:01.000Z</time>
</trkpt>
<trkpt lat="31.8379200" lon="35.0353300">
<ele>295.000000</ele>
<time>2010-01-01T01:51:33.000Z</time>
</trkpt>
<trkpt lat="31.8381000" lon="35.0353300">
<ele>292.000000</ele>
<time>2010-01-01T01:51:40.000Z</time>
</trkpt>
<trkpt lat="31.8381400" lon="35.0353200">
<ele>292.000000</ele>
<time>2010-01-01T01:51:42.000Z</time>
</trkpt>
<trkpt lat="31.8382200" lon="35.0352700">
<ele>291.000000</ele>
<time>2010-01-01T01:51:46.000Z</time>
</trkpt>
<trkpt lat="31.8382800" lon="35.0352000">
<ele>291.000000</ele>
<time>2010-01-01T01:51:49.000Z</time>
</trkpt>
<trkpt lat="31.8383300" lon="35.0351100">
<ele>291.000000</ele>
<time>2010-01-01T01:51:53.000Z</time>
</trkpt>
<trkpt lat="31.8384200" lon="35.0347900">
<ele>288.000000</ele>
<time>2010-01-01T01:52:04.000Z</time>
</trkpt>
<trkpt lat="31.8384900" lon="35.0343400">
<ele>284.000000</ele>
<time>2010-01-01T01:52:20.000Z</time>
</trkpt>
<trkpt lat="31.8385300" lon="35.0336800">
<ele>282.000000</ele>
<time>2010-01-01T01:52:42.000Z</time>
</trkpt>
<trkpt lat="31.8385600" lon="35.0334900">
<ele>282.000000</ele>
<time>2010-01-01T01:52:49.000Z</time>
</trkpt>
<trkpt lat="31.8386300" lon="35.0333200">
<ele>282.000000</ele>
<time>2010-01-01T01:52:55.000Z</time>
</trkpt>
<trkpt lat="31.8387600" lon="35.0331500">
<ele>284.000000</ele>
<time>2010-01-01T01:53:03.000Z</time>
</trkpt>
<trkpt lat="31.8389100" lon="35.0330600">
<ele>284.000000</ele>
<time>2010-01-01T01:53:10.000Z</time>
</trkpt>
<trkpt lat="31.8389800" lon="35.0330400">
<ele>283.000000</ele>
<time>2010-01-01T01:53:13.000Z</time>
</trkpt>
<trkpt lat="31.8392800" lon="35.0330100">
<ele>281.000000</ele>
<time>2010-01-01T01:53:25.000Z</time>
</trkpt>
<trkpt lat="31.8397400" lon="35.0329100">
<ele>277.000000</ele>
<time>2010-01-01T01:53:43.000Z</time>
</trkpt>
<trkpt lat="31.8408000" lon="35.0325400">
<ele>268.000000</ele>
<time>2010-01-01T01:54:28.000Z</time>
</trkpt>
<trkpt lat="31.8408900" lon="35.0324700">
<ele>268.000000</ele>
<time>2010-01-01T01:54:32.000Z</time>
</trkpt>
<trkpt lat="31.8409800" lon="35.0323700">
<ele>268.000000</ele>
<time>2010-01-01T01:54:37.000Z</time>
</trkpt>
<trkpt lat="31.8412000" lon="35.0319500">
<ele>270.000000</ele>
<time>2010-01-01T01:54:54.000Z</time>
</trkpt>
<trkpt lat="31.8412700" lon="35.0318500">
<ele>270.000000</ele>
<time>2010-01-01T01:54:58.000Z</time>
</trkpt>
<trkpt lat="31.8413700" lon="35.0317600">
<ele>269.000000</ele>
<time>2010-01-01T01:55:03.000Z</time>
</trkpt>
<trkpt lat="31.8414900" lon="35.0316900">
<ele>268.000000</ele>
<time>2010-01-01T01:55:09.000Z</time>
</trkpt>
<trkpt lat="31.8415800" lon="35.0316500">
<ele>267.000000</ele>
<time>2010-01-01T01:55:12.000Z</time>
</trkpt>
<trkpt lat="31.8418900" lon="35.0316200">
<ele>263.000000</ele>
<time>2010-01-01T01:55:25.000Z</time>
</trkpt>
<trkpt lat="31.8422900" lon="35.0316500">
<ele>258.000000</ele>
<time>2010-01-01T01:55:41.000Z</time>
</trkpt>
<trkpt lat="31.8426500" lon="35.0316200">
<ele>255.000000</ele>
<time>2010-01-01T01:55:55.000Z</time>
</trkpt>
<trkpt lat="31.8428000" lon="35.0315700">
<ele>255.000000</ele>
<time>2010-01-01T01:56:02.000Z</time>
</trkpt>
<trkpt lat="31.8431600" lon="35.0313400">
<ele>254.000000</ele>
<time>2010-01-01T01:56:18.000Z</time>
</trkpt>
<trkpt lat="31.8434700" lon="35.0311000">
<ele>253.000000</ele>
<time>2010-01-01T01:56:33.000Z</time>
</trkpt>
<trkpt lat="31.8436400" lon="35.0309300">
<ele>252.000000</ele>
<time>2010-01-01T01:56:42.000Z</time>
</trkpt>
<trkpt lat="31.8437500" lon="35.0307800">
<ele>252.000000</ele>
<time>2010-01-01T01:56:49.000Z</time>
</trkpt>
<trkpt lat="31.8439000" lon="35.0305400">
<ele>250.999985</ele>
<time>2010-01-01T01:56:59.000Z</time>
</trkpt>
<trkpt lat="31.8441800" lon="35.0302200">
<ele>249.000000</ele>
<time>2010-01-01T01:57:14.000Z</time>
</trkpt>
<trkpt lat="31.8445600" lon="35.0297100">
<ele>245.000000</ele>
<time>2010-01-01T01:57:37.000Z</time>
</trkpt>
<trkpt lat="31.8448600" lon="35.0293400">
<ele>242.000000</ele>
<time>2010-01-01T01:57:55.000Z</time>
</trkpt>
<trkpt lat="31.8449000" lon="35.0292700">
<ele>241.000000</ele>
<time>2010-01-01T01:57:58.000Z</time>
</trkpt>
<trkpt lat="31.8449500" lon="35.0290900">
<ele>240.000000</ele>
<time>2010-01-01T01:58:04.000Z</time>
</trkpt>
<trkpt lat="31.8449600" lon="35.0286000">
<ele>238.000000</ele>
<time>2010-01-01T01:58:21.000Z</time>
</trkpt>
<trkpt lat="31.8448700" lon="35.0275300">
<ele>238.000000</ele>
<time>2010-01-01T01:58:57.000Z</time>
</trkpt>
<trkpt lat="31.8448800" lon="35.0274500">
<ele>238.000000</ele>
<time>2010-01-01T01:59:00.000Z</time>
</trkpt>
<trkpt lat="31.8449200" lon="35.0273400">
<ele>237.000015</ele>
<time>2010-01-01T01:59:04.000Z</time>
</trkpt>
<trkpt lat="31.8451300" lon="35.0270400">
<ele>236.000000</ele>
<time>2010-01-01T01:59:17.000Z</time>
</trkpt>
<trkpt lat="31.8452800" lon="35.0268700">
<ele>234.000000</ele>
<time>2010-01-01T01:59:26.000Z</time>
</trkpt>
<trkpt lat="31.8455100" lon="35.0267100">
<ele>232.000000</ele>
<time>2010-01-01T01:59:36.000Z</time>
</trkpt>
<trkpt lat="31.8452800" lon="35.0262600">
<ele>234.000000</ele>
<time>2010-01-01T01:59:54.000Z</time>
</trkpt>
<trkpt lat="31.8451200" lon="35.0259000">
<ele>235.000000</ele>
<time>2010-01-01T02:00:08.000Z</time>
</trkpt>
<trkpt lat="31.8450400" lon="35.0256300">
<ele>235.000000</ele>
<time>2010-01-01T02:00:18.000Z</time>
</trkpt>
<trkpt lat="31.8450500" lon="35.0254300">
<ele>235.000000</ele>
<time>2010-01-01T02:00:25.000Z</time>
</trkpt>
<trkpt lat="31.8451300" lon="35.0249500">
<ele>236.000000</ele>
<time>2010-01-01T02:00:41.000Z</time>
</trkpt>
<trkpt lat="31.8451236" lon="35.0245977">
<ele>237.000015</ele>
<time>2010-01-01T02:00:51.000Z</time>
</trkpt>
<trkpt lat="31.8438355" lon="35.0254056">
<ele>238.000000</ele>
<time>2010-01-01T02:00:57.000Z</time>
</trkpt>
<trkpt lat="31.8428805" lon="35.0253119">
<ele>238.000000</ele>
<time>2010-01-01T02:00:57.000Z</time>
</trkpt>
<trkpt lat="31.8424062" lon="35.0250537">
<ele>240.000000</ele>
<time>2010-01-01T02:01:16.000Z</time>
</trkpt>
<trkpt lat="31.8413893" lon="35.0246995">
<ele>242.000000</ele>
<time>2010-01-01T02:01:26.000Z</time>
</trkpt>
<trkpt lat="31.8409301" lon="35.0244231">
<ele>244.000015</ele>
<time>2010-01-01T02:01:36.000Z</time>
</trkpt>
<trkpt lat="31.8403192" lon="35.0248290">
<ele>245.000000</ele>
<time>2010-01-01T02:01:40.000Z</time>
</trkpt>
<trkpt lat="31.8401734" lon="35.0239170">
<ele>250.000000</ele>
<time>2010-01-01T02:01:56.000Z</time>
</trkpt>
<trkpt lat="31.8405653" lon="35.0236702">
<ele>254.000000</ele>
<time>2010-01-01T02:02:09.000Z</time>
</trkpt>
<trkpt lat="31.8407434" lon="35.0233626">
<ele>255.000000</ele>
<time>2010-01-01T02:02:13.000Z</time>
</trkpt>
<trkpt lat="31.8402554" lon="35.0223720">
<ele>256.000000</ele>
<time>2010-01-01T02:02:17.000Z</time>
</trkpt>
<trkpt lat="31.8413664" lon="35.0223515">
<ele>263.000000</ele>
<time>2010-01-01T02:02:43.000Z</time>
</trkpt>
<trkpt lat="31.8429400" lon="35.0227500">
<ele>268.000000</ele>
<time>2010-01-01T02:03:07.000Z</time>
</trkpt>
<trkpt lat="31.8433400" lon="35.0224600">
<ele>267.000000</ele>
<time>2010-01-01T02:03:26.000Z</time>
</trkpt>
<trkpt lat="31.8436600" lon="35.0221300">
<ele>268.000000</ele>
<time>2010-01-01T02:03:43.000Z</time>
</trkpt>
<trkpt lat="31.8438800" lon="35.0217500">
<ele>269.000000</ele>
<time>2010-01-01T02:03:58.000Z</time>
</trkpt>
<trkpt lat="31.8439100" lon="35.0213600">
<ele>269.000000</ele>
<time>2010-01-01T02:04:11.000Z</time>
</trkpt>
<trkpt lat="31.8442800" lon="35.0200000">
<ele>268.000000</ele>
<time>2010-01-01T02:05:00.000Z</time>
</trkpt>
<trkpt lat="31.8446600" lon="35.0193000">
<ele>269.000000</ele>
<time>2010-01-01T02:05:28.000Z</time>
</trkpt>
<trkpt lat="31.8447200" lon="35.0191000">
<ele>268.000000</ele>
<time>2010-01-01T02:05:36.000Z</time>
</trkpt>
<trkpt lat="31.8446800" lon="35.0186200">
<ele>267.000000</ele>
<time>2010-01-01T02:05:52.000Z</time>
</trkpt>
<trkpt lat="31.8446579" lon="35.0181215">
<ele>265.000000</ele>
<time>2010-01-01T02:06:02.000Z</time>
</trkpt>
<trkpt lat="31.8447000" lon="35.0175500">
<ele>263.000000</ele>
<time>2010-01-01T02:06:29.000Z</time>
</trkpt>
<trkpt lat="31.8447900" lon="35.0172400">
<ele>264.000000</ele>
<time>2010-01-01T02:06:40.000Z</time>
</trkpt>
<trkpt lat="31.8450800" lon="35.0166300">
<ele>268.000000</ele>
<time>2010-01-01T02:07:04.000Z</time>
</trkpt>
<trkpt lat="31.8453800" lon="35.0161300">
<ele>272.000000</ele>
<time>2010-01-01T02:07:24.000Z</time>
</trkpt>
<trkpt lat="31.8454900" lon="35.0158700">
<ele>274.000000</ele>
<time>2010-01-01T02:07:34.000Z</time>
</trkpt>
<trkpt lat="31.8455200" lon="35.0153600">
<ele>280.000000</ele>
<time>2010-01-01T02:07:52.000Z</time>
</trkpt>
<trkpt lat="31.8456494" lon="35.0153052">
<ele>281.000000</ele>
<time>2010-01-01T02:07:58.000Z</time>
</trkpt>
<trkpt lat="31.8458681" lon="35.0151228">
<ele>281.000000</ele>
<time>2010-01-01T02:08:09.000Z</time>
</trkpt>
<trkpt lat="31.8459866" lon="35.0150530">
<ele>282.000000</ele>
<time>2010-01-01T02:08:15.000Z</time>
</trkpt>
<trkpt lat="31.8462100" lon="35.0149400">
<ele>281.000000</ele>
<time>2010-01-01T02:08:25.000Z</time>
</trkpt>
<trkpt lat="31.8465600" lon="35.0146400">
<ele>281.000000</ele>
<time>2010-01-01T02:08:42.000Z</time>
</trkpt>
<trkpt lat="31.8468300" lon="35.0140600">
<ele>280.000000</ele>
<time>2010-01-01T02:09:05.000Z</time>
</trkpt>
<trkpt lat="31.8468200" lon="35.0138500">
<ele>279.000000</ele>
<time>2010-01-01T02:09:12.000Z</time>
</trkpt>
<trkpt lat="31.8466224" lon="35.0132130">
<ele>278.000000</ele>
<time>2010-01-01T02:09:35.000Z</time>
</trkpt>
<trkpt lat="31.8464714" lon="35.0127839">
<ele>278.000000</ele>
<time>2010-01-01T02:09:50.000Z</time>
</trkpt>
<trkpt lat="31.8463893" lon="35.0122850">
<ele>274.000000</ele>
<time>2010-01-01T02:10:09.000Z</time>
</trkpt>
<trkpt lat="31.8462344" lon="35.0118183">
<ele>274.000000</ele>
<time>2010-01-01T02:10:25.000Z</time>
</trkpt>
<trkpt lat="31.8460795" lon="35.0115125">
<ele>278.000000</ele>
<time>2010-01-01T02:10:41.000Z</time>
</trkpt>
<trkpt lat="31.8460586" lon="35.0111907">
<ele>278.000000</ele>
<time>2010-01-01T02:10:46.000Z</time>
</trkpt>
<trkpt lat="31.8461300" lon="35.0107800">
<ele>280.000000</ele>
<time>2010-01-01T02:11:02.000Z</time>
</trkpt>
<trkpt lat="31.8461900" lon="35.0105400">
<ele>281.000000</ele>
<time>2010-01-01T02:11:11.000Z</time>
</trkpt>
<trkpt lat="31.8463000" lon="35.0102400">
<ele>282.000000</ele>
<time>2010-01-01T02:11:22.000Z</time>
</trkpt>
<trkpt lat="31.8463900" lon="35.0098600">
<ele>283.000000</ele>
<time>2010-01-01T02:11:35.000Z</time>
</trkpt>
<trkpt lat="31.8464100" lon="35.0097100">
<ele>285.000000</ele>
<time>2010-01-01T02:11:40.000Z</time>
</trkpt>
<trkpt lat="31.8464300" lon="35.0096700">
<ele>285.000000</ele>
<time>2010-01-01T02:11:42.000Z</time>
</trkpt>
<trkpt lat="31.8467800" lon="35.0093800">
<ele>283.000000</ele>
<time>2010-01-01T02:11:59.000Z</time>
</trkpt>
<trkpt lat="31.8469700" lon="35.0088800">
<ele>286.000000</ele>
<time>2010-01-01T02:12:18.000Z</time>
</trkpt>
<trkpt lat="31.8470800" lon="35.0083600">
<ele>288.000000</ele>
<time>2010-01-01T02:12:36.000Z</time>
</trkpt>
<trkpt lat="31.8470600" lon="35.0080100">
<ele>289.000000</ele>
<time>2010-01-01T02:12:48.000Z</time>
</trkpt>
<trkpt lat="31.8469700" lon="35.0078300">
<ele>291.000000</ele>
<time>2010-01-01T02:12:55.000Z</time>
</trkpt>
<trkpt lat="31.8468700" lon="35.0075700">
<ele>293.000000</ele>
<time>2010-01-01T02:13:05.000Z</time>
</trkpt>
<trkpt lat="31.8468700" lon="35.0070800">
<ele>293.000000</ele>
<time>2010-01-01T02:13:21.000Z</time>
</trkpt>
<trkpt lat="31.8468400" lon="35.0065400">
<ele>292.000000</ele>
<time>2010-01-01T02:13:40.000Z</time>
</trkpt>
<trkpt lat="31.8467500" lon="35.0063100">
<ele>292.000000</ele>
<time>2010-01-01T02:13:48.000Z</time>
</trkpt>
<trkpt lat="31.8466700" lon="35.0058400">
<ele>290.000000</ele>
<time>2010-01-01T02:14:05.000Z</time>
</trkpt>
<trkpt lat="31.8466900" lon="35.0053800">
<ele>291.000000</ele>
<time>2010-01-01T02:14:20.000Z</time>
</trkpt>
<trkpt lat="31.8467600" lon="35.0045800">
<ele>290.000000</ele>
<time>2010-01-01T02:14:48.000Z</time>
</trkpt>
<trkpt lat="31.8467600" lon="35.0045700">
<ele>290.000000</ele>
<time>2010-01-01T02:14:48.000Z</time>
</trkpt>
<trkpt lat="31.8466300" lon="35.0041500">
<ele>291.000000</ele>
<time>2010-01-01T02:15:03.000Z</time>
</trkpt>
<trkpt lat="31.8465000" lon="35.0038000">
<ele>290.000000</ele>
<time>2010-01-01T02:15:16.000Z</time>
</trkpt>
<trkpt lat="31.8463300" lon="35.0034200">
<ele>291.000000</ele>
<time>2010-01-01T02:15:31.000Z</time>
</trkpt>
<trkpt lat="31.8462800" lon="35.0026800">
<ele>287.000000</ele>
<time>2010-01-01T02:15:56.000Z</time>
</trkpt>
<trkpt lat="31.8464300" lon="35.0022600">
<ele>280.000000</ele>
<time>2010-01-01T02:16:11.000Z</time>
</trkpt>
<trkpt lat="31.8466100" lon="35.0007200">
<ele>268.000000</ele>
<time>2010-01-01T02:17:04.000Z</time>
</trkpt>
<trkpt lat="31.8466200" lon="35.0000300">
<ele>265.000000</ele>
<time>2010-01-01T02:17:28.000Z</time>
</trkpt>
<trkpt lat="31.8465300" lon="34.9994600">
<ele>265.000000</ele>
<time>2010-01-01T02:17:47.000Z</time>
</trkpt>
<trkpt lat="31.8463100" lon="34.9988400">
<ele>265.000000</ele>
<time>2010-01-01T02:18:10.000Z</time>
</trkpt>
<trkpt lat="31.8461300" lon="34.9986500">
<ele>266.000000</ele>
<time>2010-01-01T02:18:20.000Z</time>
</trkpt>
<trkpt lat="31.8462000" lon="34.9982200">
<ele>263.000000</ele>
<time>2010-01-01T02:18:35.000Z</time>
</trkpt>
<trkpt lat="31.8462000" lon="34.9980800">
<ele>262.000000</ele>
<time>2010-01-01T02:18:40.000Z</time>
</trkpt>
<trkpt lat="31.8462300" lon="34.9979800">
<ele>261.000000</ele>
<time>2010-01-01T02:18:43.000Z</time>
</trkpt>
<trkpt lat="31.8462900" lon="34.9979100">
<ele>260.000000</ele>
<time>2010-01-01T02:18:47.000Z</time>
</trkpt>
<trkpt lat="31.8463800" lon="34.9978600">
<ele>260.000000</ele>
<time>2010-01-01T02:18:51.000Z</time>
</trkpt>
<trkpt lat="31.8464800" lon="34.9978900">
<ele>260.000000</ele>
<time>2010-01-01T02:18:55.000Z</time>
</trkpt>
<trkpt lat="31.8466600" lon="34.9980200">
<ele>261.000000</ele>
<time>2010-01-01T02:19:03.000Z</time>
</trkpt>
<trkpt lat="31.8468600" lon="34.9981200">
<ele>258.000000</ele>
<time>2010-01-01T02:19:12.000Z</time>
</trkpt>
<trkpt lat="31.8469300" lon="34.9980800">
<ele>257.000000</ele>
<time>2010-01-01T02:19:15.000Z</time>
</trkpt>
<trkpt lat="31.8469700" lon="34.9979800">
<ele>256.000000</ele>
<time>2010-01-01T02:19:19.000Z</time>
</trkpt>
<trkpt lat="31.8470300" lon="34.9973400">
<ele>252.000000</ele>
<time>2010-01-01T02:19:41.000Z</time>
</trkpt>
<trkpt lat="31.8469600" lon="34.9967700">
<ele>248.000000</ele>
<time>2010-01-01T02:20:00.000Z</time>
</trkpt>
<trkpt lat="31.8468700" lon="34.9965500">
<ele>247.000000</ele>
<time>2010-01-01T02:20:09.000Z</time>
</trkpt>
<trkpt lat="31.8468400" lon="34.9963500">
<ele>245.000000</ele>
<time>2010-01-01T02:20:15.000Z</time>
</trkpt>
<trkpt lat="31.8468300" lon="34.9962800">
<ele>244.000015</ele>
<time>2010-01-01T02:20:18.000Z</time>
</trkpt>
<trkpt lat="31.8468600" lon="34.9960600">
<ele>241.000000</ele>
<time>2010-01-01T02:20:25.000Z</time>
</trkpt>
<trkpt lat="31.8468400" lon="34.9959800">
<ele>241.000000</ele>
<time>2010-01-01T02:20:28.000Z</time>
</trkpt>
<trkpt lat="31.8467100" lon="34.9957000">
<ele>239.000000</ele>
<time>2010-01-01T02:20:39.000Z</time>
</trkpt>
<trkpt lat="31.8463800" lon="34.9954300">
<ele>237.000015</ele>
<time>2010-01-01T02:20:55.000Z</time>
</trkpt>
<trkpt lat="31.8463000" lon="34.9953400">
<ele>236.000000</ele>
<time>2010-01-01T02:21:00.000Z</time>
</trkpt>
<trkpt lat="31.8461500" lon="34.9950600">
<ele>232.999985</ele>
<time>2010-01-01T02:21:11.000Z</time>
</trkpt>
<trkpt lat="31.8458400" lon="34.9947200">
<ele>230.000000</ele>
<time>2010-01-01T02:21:28.000Z</time>
</trkpt>
<trkpt lat="31.8457500" lon="34.9947100">
<ele>229.000000</ele>
<time>2010-01-01T02:21:32.000Z</time>
</trkpt>
<trkpt lat="31.8456600" lon="34.9947300">
<ele>229.000000</ele>
<time>2010-01-01T02:21:35.000Z</time>
</trkpt>
<trkpt lat="31.8454700" lon="34.9948400">
<ele>228.000000</ele>
<time>2010-01-01T02:21:44.000Z</time>
</trkpt>
<trkpt lat="31.8451400" lon="34.9949800">
<ele>227.000000</ele>
<time>2010-01-01T02:21:58.000Z</time>
</trkpt>
<trkpt lat="31.8449000" lon="34.9951200">
<ele>227.000000</ele>
<time>2010-01-01T02:22:08.000Z</time>
</trkpt>
<trkpt lat="31.8448000" lon="34.9952700">
<ele>228.000000</ele>
<time>2010-01-01T02:22:15.000Z</time>
</trkpt>
<trkpt lat="31.8447300" lon="34.9954500">
<ele>229.000000</ele>
<time>2010-01-01T02:22:22.000Z</time>
</trkpt>
<trkpt lat="31.8446800" lon="34.9956200">
<ele>231.000000</ele>
<time>2010-01-01T02:22:28.000Z</time>
</trkpt>
<trkpt lat="31.8446333" lon="34.9958405">
<ele>234.000000</ele>
<time>2010-01-01T02:22:37.000Z</time>
</trkpt>
<trkpt lat="31.8445760" lon="34.9958620">
<ele>232.999985</ele>
<time>2010-01-01T02:22:39.000Z</time>
</trkpt>
<trkpt lat="31.8445200" lon="34.9958600">
<ele>231.000000</ele>
<time>2010-01-01T02:22:43.000Z</time>
</trkpt>
<trkpt lat="31.8443982" lon="34.9959639">
<ele>228.000000</ele>
<time>2010-01-01T02:22:50.000Z</time>
</trkpt>
<trkpt lat="31.8439699" lon="34.9965916">
<ele>232.999985</ele>
<time>2010-01-01T02:23:21.000Z</time>
</trkpt>
<trkpt lat="31.8431500" lon="34.9962300">
<ele>225.999985</ele>
<time>2010-01-01T02:23:57.000Z</time>
</trkpt>
<trkpt lat="31.8430000" lon="34.9961000">
<ele>225.999985</ele>
<time>2010-01-01T02:24:04.000Z</time>
</trkpt>
<trkpt lat="31.8429000" lon="34.9959200">
<ele>225.999985</ele>
<time>2010-01-01T02:24:11.000Z</time>
</trkpt>
<trkpt lat="31.8427400" lon="34.9952100">
<ele>225.999985</ele>
<time>2010-01-01T02:24:36.000Z</time>
</trkpt>
<trkpt lat="31.8426800" lon="34.9948700">
<ele>227.000000</ele>
<time>2010-01-01T02:24:48.000Z</time>
</trkpt>
<trkpt lat="31.8426200" lon="34.9944100">
<ele>229.000000</ele>
<time>2010-01-01T02:25:04.000Z</time>
</trkpt>
<trkpt lat="31.8426400" lon="34.9941700">
<ele>230.000000</ele>
<time>2010-01-01T02:25:12.000Z</time>
</trkpt>
<trkpt lat="31.8427300" lon="34.9938900">
<ele>230.000000</ele>
<time>2010-01-01T02:25:22.000Z</time>
</trkpt>
<trkpt lat="31.8426700" lon="34.9936900">
<ele>232.000000</ele>
<time>2010-01-01T02:25:30.000Z</time>
</trkpt>
<trkpt lat="31.8422100" lon="34.9930800">
<ele>240.000000</ele>
<time>2010-01-01T02:25:57.000Z</time>
</trkpt>
<trkpt lat="31.8418753" lon="34.9936222">
<ele>241.000000</ele>
<time>2010-01-01T02:26:03.000Z</time>
</trkpt>
</trkseg>
</trk>
</gpx>
